Dessau, Texas
Current Conditions -  °F | °C
As of 10:15 PM on Sunday 21 Dec 2014 (Local Time) from KEDC Reporting Station
Overcast Overcast  
Wind Chill: 13°   Ceiling: 800
Heat Index: 13°   Visibility: 9mi
Dew Point: 11°   Wind: 9mph
Humidity: 88%   Direction: 200°SSW
Pressure: 29.85"   Gusts: NA
Location:  30.3795°N, 97.676°W
Report Text: KEDC 220415Z AUTO 20008KT 9SM BKN008 OVC021 13/11 A2985 RMK AO2
Loading
Personal Weather Stations






























Interactive Weather Map New forecast layout! Learn more

10-Day Weather Forecast

Advertisements
Track Severe Weather on mobile